Time;durP1;ratioP1;P1;durP2;ratioP2;P2;SDS_P1;SDS_P2;PMS_P1;PMS_P2;Temp;Humidity;BMP_temperature;BMP_pressure;BME280_temperature;BME280_humidity;BME280_pressure;Samples;Min_cycle;Max_cycle;Signal;HPM_P1;HPM_P2
2021/12/11 00:01:46;;;;;;;30.00;17.30;;;;;;;;;;4448212;32;20704;-57
2021/12/11 00:04:19;;;;;;;34.57;19.23;;;;;;;;;;4460353;32;20223;-57
2021/12/11 00:06:52;;;;;;;30.67;18.13;;;;;;;;;;4450531;32;20589;-57
2021/12/11 00:09:19;;;;;;;29.73;16.00;;;;;;;;;;4463190;32;20234;-57
2021/12/11 00:11:52;;;;;;;19.07;12.47;;;;;;;;;;4464053;32;20208;-57
2021/12/11 00:14:19;;;;;;;24.47;11.67;;;;;;;;;;4464720;32;20302;-57
2021/12/11 00:16:45;;;;;;;30.73;15.33;;;;;;;;;;4464363;32;20641;-57
2021/12/11 00:19:29;;;;;;;29.83;15.00;;;;;;;;;;4464396;32;20305;-58
2021/12/11 00:22:21;;;;;;;31.83;16.83;;;;;;;;;;4464173;32;20287;-57
2021/12/11 00:24:47;;;;;;;29.40;15.73;;;;;;;;;;4464383;32;20613;-58
2021/12/11 00:27:16;;;;;;;40.20;19.17;;;;;;;;;;4463914;32;20319;-58
2021/12/11 00:29:43;;;;;;;32.27;16.33;;;;;;;;;;4463091;32;20317;-58
2021/12/11 00:32:35;;;;;;;34.00;16.17;;;;;;;;;;4464078;32;20286;-58
2021/12/11 00:35:15;;;;;;;27.63;15.43;;;;;;;;;;4459775;32;20220;-57
2021/12/11 00:37:41;;;;;;;27.73;15.93;;;;;;;;;;4463824;32;20788;-57
2021/12/11 00:40:18;;;;;;;33.90;19.43;;;;;;;;;;4463921;32;20271;-58
2021/12/11 00:42:58;;;;;;;39.37;22.83;;;;;;;;;;4463995;32;20364;-58
2021/12/11 00:45:28;;;;;;;43.27;22.83;;;;;;;;;;4464119;32;20218;-57
2021/12/11 00:48:00;;;;;;;56.00;28.00;;;;;;;;;;4464023;32;20236;-57
2021/12/11 00:50:31;;;;;;;43.87;25.57;;;;;;;;;;4463984;32;20176;-59
2021/12/11 00:53:05;;;;;;;30.63;18.47;;;;;;;;;;4462753;32;20310;-58
2021/12/11 00:55:37;;;;;;;29.13;16.87;;;;;;;;;;4463934;32;20667;-57
2021/12/11 00:58:22;;;;;;;30.83;18.13;;;;;;;;;;4463794;32;20200;-58
2021/12/11 01:01:06;;;;;;;34.47;19.00;;;;;;;;;;4463901;32;20240;-58
2021/12/11 01:03:38;;;;;;;28.70;15.70;;;;;;;;;;4464081;32;20647;-57
2021/12/11 01:06:11;;;;;;;29.90;16.53;;;;;;;;;;4463930;32;20221;-57
2021/12/11 01:08:40;;;;;;;34.77;16.97;;;;;;;;;;4450102;32;20271;-57
2021/12/11 01:11:17;;;;;;;34.23;18.10;;;;;;;;;;4448104;32;20229;-57
2021/12/11 01:13:53;;;;;;;35.80;19.67;;;;;;;;;;4448101;32;20176;-57
2021/12/11 01:16:20;;;;;;;47.13;20.63;;;;;;;;;;4447128;32;20576;-57
2021/12/11 01:18:50;;;;;;;31.33;18.00;;;;;;;;;;4446658;32;20327;-58
2021/12/11 01:21:42;;;;;;;38.73;17.47;;;;;;;;;;4447978;32;20283;-58
2021/12/11 01:24:41;;;;;;;31.23;17.97;;;;;;;;;;4448323;32;20216;-59
2021/12/11 01:27:09;;;;;;;35.37;15.73;;;;;;;;;;4448126;32;20304;-58
2021/12/11 01:29:35;;;;;;;32.97;17.70;;;;;;;;;;4447952;32;20209;-57
2021/12/11 01:32:02;;;;;;;32.57;17.63;;;;;;;;;;4459591;32;20733;-57
2021/12/11 01:34:28;;;;;;;35.37;19.77;;;;;;;;;;4463790;32;20208;-57
2021/12/11 01:36:55;;;;;;;28.37;15.77;;;;;;;;;;4463358;32;20483;-57
2021/12/11 01:39:29;;;;;;;35.67;18.27;;;;;;;;;;4464266;32;20386;-56
2021/12/11 01:41:57;;;;;;;37.03;19.13;;;;;;;;;;4466457;32;20266;-57
2021/12/11 01:44:29;;;;;;;40.17;18.57;;;;;;;;;;4466643;32;20222;-58
2021/12/11 01:47:18;;;;;;;32.10;18.60;;;;;;;;;;4466487;32;20631;-57
2021/12/11 01:49:48;;;;;;;34.90;18.87;;;;;;;;;;4466672;32;20581;-57
2021/12/11 01:52:18;;;;;;;33.93;16.60;;;;;;;;;;4466481;32;20324;-57
2021/12/11 01:54:46;;;;;;;35.27;17.93;;;;;;;;;;4466741;32;20192;-57
2021/12/11 01:57:17;;;;;;;35.33;19.60;;;;;;;;;;4466171;32;20216;-58
2021/12/11 01:59:46;;;;;;;35.07;16.97;;;;;;;;;;4465146;32;20606;-58
2021/12/11 02:02:19;;;;;;;29.00;15.27;;;;;;;;;;4466037;32;20266;-57
2021/12/11 02:04:50;;;;;;;31.30;19.27;;;;;;;;;;4464876;32;20228;-56
2021/12/11 02:07:23;;;;;;;31.70;17.30;;;;;;;;;;4460144;32;20236;-58
2021/12/11 02:09:56;;;;;;;41.40;20.63;;;;;;;;;;4450459;32;20197;-57
2021/12/11 02:12:38;;;;;;;41.27;19.10;;;;;;;;;;4464308;32;20666;-57
2021/12/11 02:15:08;;;;;;;28.53;16.07;;;;;;;;;;4466129;32;20176;-57
2021/12/11 02:17:48;;;;;;;32.00;14.97;;;;;;;;;;4464817;32;20228;-57
2021/12/11 02:20:27;;;;;;;33.17;15.93;;;;;;;;;;4466198;32;20204;-57
2021/12/11 02:22:52;;;;;;;32.70;14.87;;;;;;;;;;4465536;32;20246;-58
2021/12/11 02:25:29;;;;;;;34.73;16.30;;;;;;;;;;4465826;32;20267;-58
2021/12/11 02:28:02;;;;;;;31.73;15.50;;;;;;;;;;4465460;32;20276;-58
2021/12/11 02:31:00;;;;;;;32.20;16.00;;;;;;;;;;4464754;32;20209;-57
2021/12/11 02:33:34;;;;;;;31.23;13.77;;;;;;;;;;4465742;32;20215;-58
2021/12/11 02:36:10;;;;;;;31.63;14.67;;;;;;;;;;4464554;32;20216;-57
2021/12/11 02:38:59;;;;;;;23.93;13.53;;;;;;;;;;4459309;32;20589;-59
2021/12/11 02:41:49;;;;;;;25.37;14.13;;;;;;;;;;4450215;32;20204;-57
2021/12/11 02:44:29;;;;;;;23.37;14.13;;;;;;;;;;4450232;32;20193;-56
2021/12/11 02:47:18;;;;;;;27.40;14.57;;;;;;;;;;4449875;32;20575;-57
2021/12/11 02:50:06;;;;;;;25.57;12.57;;;;;;;;;;4438876;32;20266;-57
2021/12/11 02:52:45;;;;;;;21.20;12.13;;;;;;;;;;4447684;32;20315;-57
2021/12/11 02:55:23;;;;;;;34.70;15.73;;;;;;;;;;4450044;32;20347;-57
2021/12/11 02:57:53;;;;;;;24.40;12.67;;;;;;;;;;4449782;32;20305;-59
2021/12/11 03:00:28;;;;;;;28.83;14.30;;;;;;;;;;4450169;32;20268;-58
2021/12/11 03:03:03;;;;;;;22.43;12.83;;;;;;;;;;4449426;32;20391;-57
2021/12/11 03:05:49;;;;;;;19.97;10.97;;;;;;;;;;4449897;32;20565;-58
2021/12/11 03:08:17;;;;;;;29.67;16.20;;;;;;;;;;4460685;32;20192;-58
2021/12/11 03:10:48;;;;;;;22.67;12.40;;;;;;;;;;4462127;32;20239;-57
2021/12/11 03:13:14;;;;;;;9.37;5.20;;;;;;;;;;4450281;32;20196;-56
2021/12/11 03:15:40;;;;;;;8.13;4.77;;;;;;;;;;4457537;32;20227;-58
2021/12/11 03:18:06;;;;;;;14.10;5.67;;;;;;;;;;4449982;32;20280;-58
2021/12/11 03:20:34;;;;;;;11.17;6.50;;;;;;;;;;4449655;32;20295;-58
2021/12/11 03:23:00;;;;;;;5.20;3.30;;;;;;;;;;4450757;32;20254;-58
2021/12/11 03:25:28;;;;;;;2.67;2.20;;;;;;;;;;4465482;32;20588;-59
2021/12/11 03:27:54;;;;;;;7.03;2.40;;;;;;;;;;4464996;32;20216;-58
2021/12/11 03:30:26;;;;;;;2.77;1.93;;;;;;;;;;4464057;32;20271;-59
2021/12/11 03:32:56;;;;;;;4.70;1.87;;;;;;;;;;4464156;32;20343;-59
2021/12/11 03:35:22;;;;;;;1.60;1.23;;;;;;;;;;4464953;32;20230;-58
2021/12/11 03:37:48;;;;;;;2.53;1.63;;;;;;;;;;4464145;32;20380;-59
2021/12/11 03:40:14;;;;;;;2.97;2.10;;;;;;;;;;4449792;32;20275;-59
2021/12/11 03:42:42;;;;;;;3.17;1.93;;;;;;;;;;4449475;32;20216;-57
2021/12/11 03:45:14;;;;;;;3.47;1.90;;;;;;;;;;4449771;32;20193;-57
2021/12/11 03:47:44;;;;;;;4.10;2.60;;;;;;;;;;4449168;32;20694;-58
2021/12/11 03:50:12;;;;;;;6.47;2.33;;;;;;;;;;4449547;32;20260;-57
2021/12/11 03:52:39;;;;;;;4.90;1.67;;;;;;;;;;4449194;32;20220;-56
2021/12/11 03:55:06;;;;;;;2.73;1.50;;;;;;;;;;4448161;32;20246;-57
2021/12/11 03:57:31;;;;;;;2.30;1.60;;;;;;;;;;4449005;32;20313;-57
2021/12/11 03:59:57;;;;;;;4.00;1.83;;;;;;;;;;4449194;32;20299;-59
2021/12/11 04:02:27;;;;;;;2.80;1.67;;;;;;;;;;4448475;32;20574;-57
2021/12/11 04:04:56;;;;;;;8.33;1.80;;;;;;;;;;4457317;32;20641;-57
2021/12/11 04:07:25;;;;;;;1.80;1.70;;;;;;;;;;4457925;32;20513;-57
2021/12/11 04:09:52;;;;;;;6.03;2.20;;;;;;;;;;4449395;32;20343;-57
2021/12/11 04:12:23;;;;;;;6.63;2.50;;;;;;;;;;4461762;32;20261;-58
2021/12/11 04:14:50;;;;;;;6.80;3.30;;;;;;;;;;4463236;32;20239;-56
2021/12/11 04:17:21;;;;;;;18.40;6.17;;;;;;;;;;4464654;32;20658;-57
2021/12/11 04:19:48;;;;;;;18.80;4.33;;;;;;;;;;4462806;32;20447;-57
2021/12/11 04:22:14;;;;;;;13.67;4.37;;;;;;;;;;4463119;32;20258;-58
2021/12/11 04:24:43;;;;;;;9.53;4.47;;;;;;;;;;4464303;32;20275;-58
2021/12/11 04:27:14;;;;;;;11.40;5.90;;;;;;;;;;4463220;32;20322;-58
2021/12/11 04:29:41;;;;;;;10.87;6.53;;;;;;;;;;4462848;32;20242;-57
2021/12/11 04:32:08;;;;;;;11.67;6.23;;;;;;;;;;4464529;32;20236;-57
2021/12/11 04:34:35;;;;;;;10.60;6.43;;;;;;;;;;4457339;32;20667;-57
2021/12/11 04:37:15;;;;;;;9.43;5.33;;;;;;;;;;4448752;32;20316;-57
2021/12/11 04:39:45;;;;;;;13.27;6.00;;;;;;;;;;4448366;32;20473;-57
2021/12/11 04:42:23;;;;;;;8.43;5.57;;;;;;;;;;4448957;32;20220;-57
2021/12/11 04:44:48;;;;;;;13.60;8.13;;;;;;;;;;4447762;32;20640;-57
2021/12/11 04:47:37;;;;;;;14.73;8.53;;;;;;;;;;4447559;32;20212;-57
2021/12/11 04:50:14;;;;;;;18.40;8.97;;;;;;;;;;4448884;32;20205;-56
2021/12/11 04:52:55;;;;;;;13.77;8.60;;;;;;;;;;4448244;32;20587;-57
2021/12/11 04:58:22;;;;;;;7.83;4.20;;;;;;;;;;4448339;32;20235;-56
2021/12/11 05:06:33;;;;;;;12.27;6.57;;;;;;;;;;4447458;32;20375;-57
2021/12/11 05:09:17;;;;;;;12.23;6.80;;;;;;;;;;4447109;32;20569;-57
2021/12/11 05:14:41;;;;;;;9.33;5.50;;;;;;;;;;4448083;32;20193;-56
2021/12/11 05:17:07;;;;;;;7.80;4.83;;;;;;;;;;4459041;32;20580;-56
2021/12/11 05:19:33;;;;;;;9.70;5.50;;;;;;;;;;4463796;32;20251;-57
2021/12/11 05:22:01;;;;;;;9.53;6.63;;;;;;;;;;4464042;32;20212;-57
2021/12/11 05:24:27;;;;;;;15.77;7.90;;;;;;;;;;4463657;32;20196;-57
2021/12/11 05:26:53;;;;;;;13.80;9.30;;;;;;;;;;4462412;32;20324;-57
2021/12/11 05:29:19;;;;;;;16.43;8.43;;;;;;;;;;4463954;32;20584;-57
2021/12/11 05:31:47;;;;;;;17.20;10.03;;;;;;;;;;4463503;32;20250;-57
2021/12/11 05:34:12;;;;;;;22.07;10.53;;;;;;;;;;4463888;32;20224;-57
2021/12/11 05:36:39;;;;;;;20.20;12.37;;;;;;;;;;4462698;32;20216;-57
2021/12/11 05:39:15;;;;;;;21.23;12.23;;;;;;;;;;4460360;32;20698;-56
2021/12/11 05:41:42;;;;;;;17.20;9.67;;;;;;;;;;4461821;32;20692;-56
2021/12/11 05:44:10;;;;;;;13.67;7.67;;;;;;;;;;4463503;32;20299;-57
2021/12/11 05:46:37;;;;;;;12.90;8.33;;;;;;;;;;4463454;32;20239;-57
2021/12/11 05:49:04;;;;;;;9.00;5.50;;;;;;;;;;4462371;32;20245;-57
2021/12/11 05:51:37;;;;;;;12.57;4.47;;;;;;;;;;4463618;32;20266;-58
2021/12/11 05:54:04;;;;;;;13.73;6.70;;;;;;;;;;4463796;32;20225;-57
2021/12/11 05:56:34;;;;;;;10.70;7.37;;;;;;;;;;4462207;32;20232;-57
2021/12/11 05:59:01;;;;;;;14.13;7.63;;;;;;;;;;4463667;32;20203;-57
2021/12/11 06:01:39;;;;;;;13.03;8.10;;;;;;;;;;4463271;32;20262;-57
2021/12/11 06:04:12;;;;;;;24.63;13.30;;;;;;;;;;4462354;32;20276;-56
2021/12/11 06:06:40;;;;;;;27.07;20.20;;;;;;;;;;4461741;32;20216;-58
2021/12/11 06:09:08;;;;;;;13.57;10.47;;;;;;;;;;4461800;32;20246;-56
2021/12/11 06:11:34;;;;;;;23.13;11.57;;;;;;;;;;4453010;32;20243;-57
2021/12/11 06:14:00;;;;;;;18.77;12.73;;;;;;;;;;4463706;32;20294;-58
2021/12/11 06:16:25;;;;;;;17.23;11.30;;;;;;;;;;4461934;32;20292;-58
2021/12/11 06:18:51;;;;;;;46.87;27.13;;;;;;;;;;4463325;32;20291;-59
2021/12/11 06:21:17;;;;;;;29.87;18.37;;;;;;;;;;4461933;32;20220;-57
2021/12/11 06:23:43;;;;;;;29.40;16.83;;;;;;;;;;4461614;32;20302;-56
2021/12/11 06:26:09;;;;;;;27.20;17.37;;;;;;;;;;4463792;32;20243;-57
2021/12/11 06:28:36;;;;;;;36.17;21.80;;;;;;;;;;4462103;32;20388;-57
2021/12/11 06:31:03;;;;;;;55.40;28.60;;;;;;;;;;4450286;32;20238;-57
2021/12/11 06:33:30;;;;;;;68.73;36.23;;;;;;;;;;4450268;32;20306;-57
2021/12/11 06:36:01;;;;;;;68.13;36.43;;;;;;;;;;4464187;32;20316;-57
2021/12/11 06:38:30;;;;;;;66.17;36.97;;;;;;;;;;4460812;32;20205;-57
2021/12/11 06:40:57;;;;;;;71.77;34.50;;;;;;;;;;4450096;32;20209;-57
2021/12/11 06:43:23;;;;;;;61.50;33.97;;;;;;;;;;4448779;32;20248;-57
2021/12/11 06:45:49;;;;;;;64.63;32.60;;;;;;;;;;4450350;32;20275;-57
2021/12/11 06:48:16;;;;;;;47.50;30.90;;;;;;;;;;4449961;32;20562;-57
2021/12/11 06:50:42;;;;;;;58.37;32.37;;;;;;;;;;4450136;32;20205;-57
2021/12/11 06:53:14;;;;;;;52.00;34.63;;;;;;;;;;4449931;32;20298;-57
2021/12/11 06:55:40;;;;;;;53.33;35.57;;;;;;;;;;4450167;32;20267;-56
2021/12/11 06:58:06;;;;;;;61.57;35.90;;;;;;;;;;4449997;32;20541;-56
2021/12/11 07:00:32;;;;;;;55.93;33.93;;;;;;;;;;4450167;32;20327;-57
2021/12/11 07:02:58;;;;;;;64.47;39.57;;;;;;;;;;4449776;32;20378;-57
2021/12/11 07:05:23;;;;;;;70.47;40.17;;;;;;;;;;4450487;32;20317;-57
2021/12/11 07:07:49;;;;;;;75.67;37.70;;;;;;;;;;4457027;32;20224;-58
2021/12/11 07:10:23;;;;;;;50.80;31.27;;;;;;;;;;4465553;32;20271;-57
2021/12/11 07:12:50;;;;;;;50.67;31.70;;;;;;;;;;4465431;32;20223;-57
2021/12/11 07:15:17;;;;;;;50.97;33.33;;;;;;;;;;4465468;32;20211;-56
2021/12/11 07:17:42;;;;;;;47.97;32.07;;;;;;;;;;4465118;32;20257;-57
2021/12/11 07:20:11;;;;;;;44.67;29.17;;;;;;;;;;4464118;32;20726;-57
2021/12/11 07:22:40;;;;;;;45.40;29.33;;;;;;;;;;4463586;32;20248;-59
2021/12/11 07:25:30;;;;;;;49.53;32.37;;;;;;;;;;4465213;32;20200;-57
2021/12/11 07:27:57;;;;;;;57.87;34.23;;;;;;;;;;4465032;32;20668;-58
2021/12/11 07:30:24;;;;;;;70.20;39.30;;;;;;;;;;4465214;32;20219;-58
2021/12/11 07:32:53;;;;;;;72.10;39.53;;;;;;;;;;4464088;32;20549;-56
2021/12/11 07:35:19;;;;;;;77.27;46.23;;;;;;;;;;4453251;32;20540;-57
2021/12/11 07:37:49;;;;;;;62.80;37.03;;;;;;;;;;4450820;32;20329;-57
2021/12/11 07:40:16;;;;;;;67.53;36.90;;;;;;;;;;4457800;32;20278;-57
2021/12/11 07:42:41;;;;;;;56.53;34.87;;;;;;;;;;4455958;32;20311;-57
2021/12/11 07:45:07;;;;;;;63.33;36.00;;;;;;;;;;4449480;32;20260;-58
2021/12/11 07:47:32;;;;;;;70.47;41.03;;;;;;;;;;4449091;32;20303;-56
2021/12/11 07:49:58;;;;;;;68.63;38.37;;;;;;;;;;4449165;32;20271;-57
2021/12/11 07:52:24;;;;;;;60.93;37.07;;;;;;;;;;4447802;32;20570;-57
2021/12/11 07:54:49;;;;;;;66.30;38.73;;;;;;;;;;4460918;32;20321;-57
2021/12/11 07:57:15;;;;;;;65.20;37.90;;;;;;;;;;4460559;32;20248;-57
2021/12/11 07:59:40;;;;;;;67.07;39.07;;;;;;;;;;4453815;32;20386;-56
2021/12/11 08:02:06;;;;;;;63.70;41.17;;;;;;;;;;4464424;32;20262;-57
2021/12/11 08:04:32;;;;;;;75.30;43.07;;;;;;;;;;4464151;32;20302;-56
2021/12/11 08:06:58;;;;;;;68.03;40.43;;;;;;;;;;4460704;32;20675;-56
2021/12/11 08:09:25;;;;;;;62.60;37.57;;;;;;;;;;4449062;32;20268;-57
2021/12/11 08:11:52;;;;;;;51.03;33.77;;;;;;;;;;4447478;32;20360;-56
2021/12/11 08:14:19;;;;;;;71.17;42.63;;;;;;;;;;4449023;32;20210;-58
2021/12/11 08:16:47;;;;;;;82.97;48.53;;;;;;;;;;4448943;32;20227;-57
2021/12/11 08:19:18;;;;;;;89.10;52.40;;;;;;;;;;4449178;32;20201;-56
2021/12/11 08:21:49;;;;;;;89.93;52.93;;;;;;;;;;4449587;32;20306;-56
2021/12/11 08:24:15;;;;;;;101.57;59.50;;;;;;;;;;4447715;32;20216;-57
2021/12/11 08:26:42;;;;;;;101.87;61.90;;;;;;;;;;4448536;32;20311;-56
2021/12/11 08:29:11;;;;;;;106.63;63.57;;;;;;;;;;4448869;32;20290;-56
2021/12/11 08:31:38;;;;;;;115.53;68.93;;;;;;;;;;4447063;32;20351;-55
2021/12/11 08:34:05;;;;;;;153.60;81.07;;;;;;;;;;4449214;32;20220;-57
2021/12/11 08:36:30;;;;;;;125.37;76.23;;;;;;;;;;4462726;32;20331;-58
2021/12/11 08:38:58;;;;;;;130.60;78.20;;;;;;;;;;4463856;32;20276;-58
2021/12/11 08:41:28;;;;;;;154.53;85.53;;;;;;;;;;4464129;32;20216;-56
2021/12/11 08:44:02;;;;;;;159.17;88.60;;;;;;;;;;4464384;32;20610;-56
2021/12/11 08:46:30;;;;;;;180.63;104.43;;;;;;;;;;4464037;32;20535;-57
2021/12/11 08:49:04;;;;;;;181.27;102.03;;;;;;;;;;4463727;32;20220;-57
2021/12/11 08:51:48;;;;;;;182.93;102.37;;;;;;;;;;4464094;32;20235;-55
2021/12/11 08:54:15;;;;;;;186.20;106.53;;;;;;;;;;4462876;32;20264;-56
2021/12/11 08:56:42;;;;;;;180.13;98.87;;;;;;;;;;4463660;32;20363;-57
2021/12/11 08:59:14;;;;;;;151.33;91.47;;;;;;;;;;4463979;32;20253;-57
2021/12/11 09:01:46;;;;;;;145.00;82.67;;;;;;;;;;4463215;32;20224;-57
2021/12/11 09:04:34;;;;;;;129.73;76.93;;;;;;;;;;4464047;32;20388;-57
2021/12/11 09:07:05;;;;;;;125.80;72.70;;;;;;;;;;4433200;32;20212;-57
2021/12/11 09:10:09;;;;;;;115.30;69.50;;;;;;;;;;4463960;32;20618;-56
2021/12/11 09:12:40;;;;;;;116.27;69.03;;;;;;;;;;4446596;32;20232;-57
2021/12/11 09:15:20;;;;;;;111.00;65.03;;;;;;;;;;4446998;32;20288;-57
2021/12/11 09:17:58;;;;;;;142.47;76.07;;;;;;;;;;4448024;32;20232;-57
2021/12/11 09:20:35;;;;;;;132.97;69.50;;;;;;;;;;4448098;32;20193;-56
2021/12/11 09:23:18;;;;;;;113.23;63.80;;;;;;;;;;4448291;32;20630;-57
2021/12/11 09:26:25;;;;;;;92.70;55.50;;;;;;;;;;4448329;32;20200;-57
2021/12/11 09:29:15;;;;;;;93.37;56.83;;;;;;;;;;4447931;32;20970;-57
2021/12/11 09:31:42;;;;;;;77.43;46.93;;;;;;;;;;4447636;32;20656;-57
2021/12/11 09:34:14;;;;;;;69.73;43.17;;;;;;;;;;4448224;32;20566;-57
2021/12/11 09:36:44;;;;;;;57.80;34.10;;;;;;;;;;4461588;32;20236;-56
2021/12/11 09:39:17;;;;;;;56.90;32.73;;;;;;;;;;4461998;32;20227;-57
2021/12/11 09:41:42;;;;;;;48.10;31.60;;;;;;;;;;4462483;32;20278;-56
2021/12/11 09:44:15;;;;;;;49.97;30.80;;;;;;;;;;4462842;32;20283;-56
2021/12/11 09:46:56;;;;;;;65.53;37.00;;;;;;;;;;4462261;32;20373;-57
2021/12/11 09:49:26;;;;;;;79.33;43.37;;;;;;;;;;4462077;32;20342;-56
2021/12/11 09:52:01;;;;;;;66.27;38.20;;;;;;;;;;4463393;32;20380;-57
2021/12/11 09:54:27;;;;;;;66.53;36.57;;;;;;;;;;4462134;32;20284;-56
2021/12/11 09:57:03;;;;;;;69.10;39.93;;;;;;;;;;4463098;32;20614;-57
2021/12/11 09:59:31;;;;;;;64.57;36.63;;;;;;;;;;4463802;32;20245;-57
2021/12/11 10:02:02;;;;;;;49.57;27.87;;;;;;;;;;4463840;32;20240;-57
2021/12/11 10:04:34;;;;;;;55.17;34.57;;;;;;;;;;4466476;32;20227;-57
2021/12/11 10:09:46;;;;;;;89.60;49.23;;;;;;;;;;4466086;32;20196;-56
2021/12/11 10:12:16;;;;;;;66.50;33.43;;;;;;;;;;4466340;32;20330;-57
2021/12/11 10:14:57;;;;;;;58.80;31.47;;;;;;;;;;4466093;32;20207;-57
2021/12/11 10:17:32;;;;;;;56.63;33.30;;;;;;;;;;4466264;32;20631;-56
2021/12/11 10:20:00;;;;;;;124.13;67.70;;;;;;;;;;4466279;32;20210;-56
2021/12/11 10:22:32;;;;;;;98.30;59.73;;;;;;;;;;4466175;32;20236;-57
2021/12/11 10:25:00;;;;;;;98.47;56.40;;;;;;;;;;4466258;32;20230;-56
2021/12/11 10:27:29;;;;;;;87.00;52.03;;;;;;;;;;4465964;32;20247;-57
2021/12/11 10:29:57;;;;;;;75.17;43.97;;;;;;;;;;4466355;32;20207;-56
2021/12/11 10:32:27;;;;;;;71.37;41.07;;;;;;;;;;4466169;32;20232;-57
2021/12/11 10:34:57;;;;;;;76.90;42.10;;;;;;;;;;4458363;32;20297;-57
2021/12/11 10:37:29;;;;;;;72.97;34.03;;;;;;;;;;4450574;32;20247;-56
2021/12/11 10:39:59;;;;;;;57.90;33.77;;;;;;;;;;4450099;32;20278;-56
2021/12/11 10:42:25;;;;;;;55.73;33.30;;;;;;;;;;4466072;32;20348;-56
2021/12/11 10:44:55;;;;;;;59.97;36.77;;;;;;;;;;4465950;32;20279;-56
2021/12/11 10:47:31;;;;;;;51.00;33.43;;;;;;;;;;4465868;32;20769;-55
2021/12/11 10:49:57;;;;;;;74.27;40.17;;;;;;;;;;4465632;32;20326;-58
2021/12/11 10:52:29;;;;;;;66.03;38.73;;;;;;;;;;4465762;32;20861;-57
2021/12/11 10:55:00;;;;;;;66.40;36.30;;;;;;;;;;4465255;32;20546;-57
2021/12/11 10:57:26;;;;;;;61.73;39.47;;;;;;;;;;4465749;32;20299;-56
2021/12/11 10:59:55;;;;;;;62.47;32.13;;;;;;;;;;4464826;32;20277;-57
2021/12/11 11:02:26;;;;;;;59.90;34.80;;;;;;;;;;4465377;32;20236;-57
2021/12/11 11:04:58;;;;;;;67.43;37.07;;;;;;;;;;4465520;32;20298;-58
2021/12/11 11:07:25;;;;;;;32.33;18.27;;;;;;;;;;4466137;32;20241;-57
2021/12/11 11:09:52;;;;;;;33.93;20.60;;;;;;;;;;4465938;32;20321;-56
2021/12/11 11:12:21;;;;;;;23.67;13.27;;;;;;;;;;4465472;32;20220;-56
2021/12/11 11:14:49;;;;;;;19.03;10.63;;;;;;;;;;4465474;32;20211;-57
2021/12/11 11:17:20;;;;;;;14.03;9.23;;;;;;;;;;4465598;32;20244;-57
2021/12/11 11:19:48;;;;;;;15.70;9.17;;;;;;;;;;4465848;32;20192;-56
2021/12/11 11:22:20;;;;;;;20.67;10.57;;;;;;;;;;4461459;32;20394;-56
2021/12/11 11:24:52;;;;;;;20.10;11.17;;;;;;;;;;4462968;32;20598;-56
2021/12/11 11:27:18;;;;;;;17.33;9.43;;;;;;;;;;4464329;32;20256;-57
2021/12/11 11:29:45;;;;;;;22.27;7.63;;;;;;;;;;4465077;32;20199;-57
2021/12/11 11:32:15;;;;;;;17.03;8.93;;;;;;;;;;4463556;32;20251;-56
2021/12/11 11:34:42;;;;;;;14.97;7.90;;;;;;;;;;4464779;32;20351;-57
2021/12/11 11:37:22;;;;;;;10.87;6.47;;;;;;;;;;4464964;32;20292;-55
2021/12/11 11:39:49;;;;;;;12.07;7.10;;;;;;;;;;4463275;32;20347;-57
2021/12/11 11:42:19;;;;;;;11.47;7.63;;;;;;;;;;4464486;32;20259;-56
2021/12/11 11:44:46;;;;;;;17.80;6.13;;;;;;;;;;4463701;32;20204;-57
2021/12/11 11:47:14;;;;;;;12.97;6.47;;;;;;;;;;4464664;32;20224;-56
2021/12/11 11:49:41;;;;;;;18.50;10.80;;;;;;;;;;4450014;32;20702;-56
2021/12/11 11:52:12;;;;;;;17.67;10.40;;;;;;;;;;4463411;32;20248;-57
2021/12/11 11:54:41;;;;;;;13.67;8.53;;;;;;;;;;4464233;32;20222;-57
2021/12/11 11:57:22;;;;;;;15.63;9.03;;;;;;;;;;4464160;32;20617;-58
2021/12/11 11:59:50;;;;;;;25.07;13.00;;;;;;;;;;4449541;32;20316;-56
2021/12/11 12:02:19;;;;;;;51.10;26.23;;;;;;;;;;4463696;32;20260;-56
2021/12/11 12:04:49;;;;;;;58.87;32.50;;;;;;;;;;4463849;32;20257;-58
2021/12/11 12:07:16;;;;;;;53.33;31.17;;;;;;;;;;4462274;32;20240;-57
2021/12/11 12:09:48;;;;;;;53.10;28.00;;;;;;;;;;4463796;32;20325;-57
2021/12/11 12:12:15;;;;;;;34.13;16.83;;;;;;;;;;4464750;32;20232;-58
2021/12/11 12:14:43;;;;;;;28.60;17.03;;;;;;;;;;4464655;32;20743;-57
2021/12/11 12:17:11;;;;;;;36.60;17.70;;;;;;;;;;4464539;32;20533;-56
2021/12/11 12:19:37;;;;;;;30.33;17.00;;;;;;;;;;4464338;32;20266;-58
2021/12/11 12:22:06;;;;;;;26.33;16.33;;;;;;;;;;4463498;32;20236;-56
2021/12/11 12:24:35;;;;;;;31.33;15.87;;;;;;;;;;4462761;32;20304;-57
2021/12/11 12:27:03;;;;;;;23.00;14.50;;;;;;;;;;4464904;32;20258;-59
2021/12/11 12:29:29;;;;;;;23.47;11.90;;;;;;;;;;4464367;32;20224;-57
2021/12/11 12:32:05;;;;;;;18.10;11.30;;;;;;;;;;4449918;32;20225;-58
2021/12/11 12:34:31;;;;;;;20.07;11.17;;;;;;;;;;4453914;32;20227;-57
2021/12/11 12:36:57;;;;;;;23.47;13.60;;;;;;;;;;4465139;32;20339;-58
2021/12/11 12:39:33;;;;;;;28.67;16.43;;;;;;;;;;4463069;32;20709;-58
2021/12/11 12:42:15;;;;;;;34.97;23.07;;;;;;;;;;4464558;32;20604;-59
2021/12/11 12:44:43;;;;;;;61.33;34.67;;;;;;;;;;4464795;32;20361;-57
2021/12/11 12:47:18;;;;;;;81.30;50.47;;;;;;;;;;4463850;32;20232;-56
2021/12/11 12:49:47;;;;;;;94.03;59.40;;;;;;;;;;4463471;32;20322;-57
2021/12/11 12:52:35;;;;;;;96.70;61.23;;;;;;;;;;4464897;32;20666;-57
2021/12/11 12:55:08;;;;;;;91.30;57.17;;;;;;;;;;4465357;32;20218;-56
2021/12/11 12:57:39;;;;;;;95.70;55.03;;;;;;;;;;4464736;32;20220;-56
2021/12/11 13:00:40;;;;;;;90.37;57.00;;;;;;;;;;4463929;32;20552;-56
2021/12/11 13:03:14;;;;;;;99.30;60.00;;;;;;;;;;4464392;32;20262;-56
2021/12/11 13:05:48;;;;;;;93.23;55.93;;;;;;;;;;4464615;32;20238;-57
2021/12/11 13:08:19;;;;;;;80.20;49.87;;;;;;;;;;4464333;32;20220;-56
2021/12/11 13:10:49;;;;;;;89.47;52.70;;;;;;;;;;4464490;32;20703;-59
2021/12/11 13:13:17;;;;;;;92.53;54.97;;;;;;;;;;4463064;32;20221;-57
2021/12/11 13:15:57;;;;;;;97.43;55.40;;;;;;;;;;4462515;32;20281;-57
2021/12/11 13:18:26;;;;;;;87.03;51.93;;;;;;;;;;4464337;32;20292;-56
2021/12/11 13:21:06;;;;;;;95.27;54.07;;;;;;;;;;4462946;32;20224;-57
2021/12/11 13:23:35;;;;;;;105.73;55.57;;;;;;;;;;4460974;32;20689;-57
2021/12/11 13:26:04;;;;;;;74.20;45.67;;;;;;;;;;4463158;32;20295;-56
2021/12/11 13:28:34;;;;;;;70.47;41.73;;;;;;;;;;4446183;32;20404;-57
2021/12/11 13:31:10;;;;;;;74.87;40.93;;;;;;;;;;4447342;32;20432;-57
2021/12/11 13:33:39;;;;;;;65.97;35.30;;;;;;;;;;4447080;32;20205;-58
2021/12/11 13:36:06;;;;;;;55.07;32.23;;;;;;;;;;4448245;32;20248;-58
2021/12/11 13:38:34;;;;;;;51.87;30.70;;;;;;;;;;4450858;32;20360;-56
2021/12/11 13:41:05;;;;;;;54.67;32.10;;;;;;;;;;4450142;32;20266;-57
2021/12/11 13:43:31;;;;;;;57.87;32.17;;;;;;;;;;4450140;32;20237;-57
2021/12/11 13:45:57;;;;;;;68.17;36.10;;;;;;;;;;4457051;32;20338;-56
2021/12/11 13:48:25;;;;;;;60.87;34.00;;;;;;;;;;4453270;32;20231;-57
2021/12/11 13:50:56;;;;;;;76.23;43.20;;;;;;;;;;4464646;32;20678;-56
2021/12/11 13:53:23;;;;;;;80.90;45.83;;;;;;;;;;4459400;32;20642;-56
2021/12/11 13:55:50;;;;;;;118.53;58.17;;;;;;;;;;4448293;32;20514;-56
2021/12/11 13:58:15;;;;;;;106.13;58.27;;;;;;;;;;4448733;32;20258;-58
2021/12/11 14:00:56;;;;;;;92.97;52.63;;;;;;;;;;4448433;32;20814;-57
2021/12/11 14:03:24;;;;;;;94.43;49.87;;;;;;;;;;4448633;32;20287;-57
2021/12/11 14:05:52;;;;;;;107.57;61.27;;;;;;;;;;4448879;32;20201;-57
2021/12/11 14:08:19;;;;;;;113.47;67.73;;;;;;;;;;4460367;32;20382;-57
2021/12/11 14:10:47;;;;;;;121.07;68.27;;;;;;;;;;4465756;32;20283;-58
2021/12/11 14:13:14;;;;;;;100.27;57.80;;;;;;;;;;4464692;32;20242;-57
2021/12/11 14:15:41;;;;;;;81.87;49.47;;;;;;;;;;4465498;32;20263;-57
2021/12/11 14:18:08;;;;;;;85.20;53.33;;;;;;;;;;4464972;32;20252;-57
2021/12/11 14:20:34;;;;;;;79.60;48.20;;;;;;;;;;4465289;32;20204;-56
2021/12/11 14:23:03;;;;;;;99.43;51.53;;;;;;;;;;4464690;32;20318;-56
2021/12/11 14:25:32;;;;;;;77.67;45.67;;;;;;;;;;4466051;32;20230;-57
2021/12/11 14:28:03;;;;;;;157.40;69.80;;;;;;;;;;4465426;32;20294;-57
2021/12/11 14:30:30;;;;;;;142.60;62.77;;;;;;;;;;4460400;32;20207;-57
2021/12/11 14:32:56;;;;;;;141.47;66.67;;;;;;;;;;4449302;32;20256;-57
2021/12/11 14:35:26;;;;;;;141.83;72.80;;;;;;;;;;4449242;32;20699;-56
2021/12/11 14:37:52;;;;;;;152.67;73.20;;;;;;;;;;4449717;32;20417;-56
2021/12/11 14:40:21;;;;;;;144.47;68.80;;;;;;;;;;4450294;32;20687;-57
2021/12/11 14:42:47;;;;;;;202.83;106.63;;;;;;;;;;4449450;32;20266;-57
2021/12/11 14:45:16;;;;;;;150.73;85.40;;;;;;;;;;4449783;32;20272;-56
2021/12/11 14:47:44;;;;;;;136.07;79.47;;;;;;;;;;4448761;32;20614;-57
2021/12/11 14:50:12;;;;;;;406.50;222.67;;;;;;;;;;4449589;32;20227;-57
2021/12/11 14:52:37;;;;;;;164.33;91.27;;;;;;;;;;4448233;32;20325;-56
2021/12/11 14:55:09;;;;;;;149.20;82.63;;;;;;;;;;4446954;32;20303;-57